Map

Track Data

SID SEASON NUMBER BASIN SUBBASIN NAME ISO_TIME NATURE LAT LON WMO_WIND WMO_PRES WMO_AGENCY TRACK_TYPE DIST2LAND LANDFALL IFLAG USA_AGENCY USA_ATCF_ID USA_LAT USA_LON USA_RECORD USA_STATUS USA_WIND USA_PRES USA_SSHS USA_R34_NE USA_R34_SE USA_R34_SW USA_R34_NW USA_R50_NE USA_R50_SE USA_R50_SW USA_R50_NW USA_R64_NE USA_R64_SE USA_R64_SW USA_R64_NW USA_POCI USA_ROCI USA_RMW USA_EYE TOKYO_LAT TOKYO_LON TOKYO_GRADE TOKYO_WIND TOKYO_PRES TOKYO_R50_DIR TOKYO_R50_LONG TOKYO_R50_SHORT TOKYO_R30_DIR TOKYO_R30_LONG TOKYO_R30_SHORT TOKYO_LAND CMA_LAT CMA_LON CMA_CAT CMA_WIND CMA_PRES HKO_LAT HKO_LON HKO_CAT HKO_WIND HKO_PRES NEWDELHI_LAT NEWDELHI_LON NEWDELHI_GRADE NEWDELHI_WIND NEWDELHI_PRES NEWDELHI_CI NEWDELHI_DP NEWDELHI_POCI REUNION_LAT REUNION_LON REUNION_TYPE REUNION_WIND REUNION_PRES REUNION_TNUM REUNION_CI REUNION_RMW REUNION_R34_NE REUNION_R34_SE REUNION_R34_SW REUNION_R34_NW REUNION_R50_NE REUNION_R50_SE REUNION_R50_SW REUNION_R50_NW REUNION_R64_NE REUNION_R64_SE REUNION_R64_SW REUNION_R64_NW BOM_LAT BOM_LON BOM_TYPE BOM_WIND BOM_PRES BOM_TNUM BOM_CI BOM_RMW BOM_R34_NE BOM_R34_SE BOM_R34_SW BOM_R34_NW BOM_R50_NE BOM_R50_SE BOM_R50_SW BOM_R50_NW BOM_R64_NE BOM_R64_SE BOM_R64_SW BOM_R64_NW BOM_ROCI BOM_POCI BOM_EYE BOM_POS_METHOD BOM_PRES_METHOD NADI_LAT NADI_LON NADI_CAT NADI_WIND NADI_PRES WELLINGTON_LAT WELLINGTON_LON WELLINGTON_WIND WELLINGTON_PRES DS824_LAT DS824_LON DS824_STAGE DS824_WIND DS824_PRES TD9636_LAT TD9636_LON TD9636_STAGE TD9636_WIND TD9636_PRES TD9635_LAT TD9635_LON TD9635_WIND TD9635_PRES TD9635_ROCI NEUMANN_LAT NEUMANN_LON NEUMANN_CLASS NEUMANN_WIND NEUMANN_PRES MLC_LAT MLC_LON MLC_CLASS MLC_WIND MLC_PRES USA_GUST BOM_GUST BOM_GUST_PER REUNION_GUST REUNION_GUST_PER USA_SEAHGT USA_SEARAD_NE USA_SEARAD_SE USA_SEARAD_SW USA_SEARAD_NW STORM_SPEED STORM_DIR
1878248N13322 1878 18 NA NA NOT_NAMED 1878-09-04 12:00:00 TS 12.5000 -37.8000 main 1739 1711 _____________O -1 12.5000 -37.8000 TD 30 12 295
1878248N13322 1878 18 NA NA NOT_NAMED 1878-09-04 15:00:00 TS 12.7527 -38.3498 main 1717 1675 _____________P -1 12.7527 -38.3498 TD 30 12 295
1878248N13322 1878 18 NA NA NOT_NAMED 1878-09-04 18:00:00 TS 13.0000 -38.9000 main 1675 1644 _____________O -1 13.0000 -38.9000 TD 30 12 295
1878248N13322 1878 18 NA NA NOT_NAMED 1878-09-04 21:00:00 TS 13.2424 -39.4502 main 1635 1613 _____________P -1 13.2424 -39.4502 TD 32 12 295
1878248N13322 1878 18 NA NA NOT_NAMED 1878-09-05 00:00:00 TS 13.5000 -40.0000 main 1613 1601 _____________O -1 13.5000 -40.0000 TS 35 11 300
1878248N13322 1878 18 NA NA NOT_NAMED 1878-09-05 03:00:00 TS 13.7832 -40.4010 main 1601 1575 _____________P -1 13.7832 -40.4010 TS 37 12 299
1878248N13322 1878 18 NA NA NOT_NAMED 1878-09-05 06:00:00 TS 14.1000 -41.1000 main 1567 1479 _____________O -1 14.1000 -41.1000 TS 40 23 287
1878248N13322 1878 18 NA NA NOT_NAMED 1878-09-05 09:00:00 TS 14.4386 -42.6491 main 1479 1413 _____________P -1 14.4386 -42.6491 TS 42 31 283
1878248N13322 1878 18 NA NA NOT_NAMED 1878-09-05 12:00:00 TS 14.8000 -44.2000 main 1410 1392 _____________O -1 14.8000 -44.2000 TS 45 23 289
1878248N13322 1878 18 NA NA NOT_NAMED 1878-09-05 15:00:00 TS 15.1831 -44.9008 main 1401 1394 _____________P -1 15.1831 -44.9008 TS 47 13 307
1878248N13322 1878 18 NA NA NOT_NAMED 1878-09-05 18:00:00 TS 15.6000 -45.3000 main 1411 1405 _____________O -1 15.6000 -45.3000 TS 50 13 313
1878248N13322 1878 18 NA NA NOT_NAMED 1878-09-05 21:00:00 TS 16.0349 -45.8503 main 1413 1413 _____________P -1 16.0349 -45.8503 TS 52 14 310
1878248N13322 1878 18 NA NA NOT_NAMED 1878-09-06 00:00:00 TS 16.5000 -46.4000 main 1434 1434 _____________O -1 16.5000 -46.4000 TS 55 14 312
1878248N13322 1878 18 NA NA NOT_NAMED 1878-09-06 03:00:00 TS 16.9849 -46.9503 main 1454 1454 _____________P -1 16.9849 -46.9503 TS 57 15 314
1878248N13322 1878 18 NA NA NOT_NAMED 1878-09-06 06:00:00 TS 17.5000 -47.5000 main 1483 1483 _____________O -1 17.5000 -47.5000 TS 60 15 315
1878248N13322 1878 18 NA NA NOT_NAMED 1878-09-06 09:00:00 TS 18.0423 -48.0503 main 1508 1508 _____________P -1 18.0423 -48.0503 TS 60 15 316
1878248N13322 1878 18 NA NA NOT_NAMED 1878-09-06 12:00:00 TS 18.6000 -48.6000 main 1546 1546 _____________O -1 18.6000 -48.6000 TS 60 15 317
1878248N13322 1878 18 NA NA NOT_NAMED 1878-09-06 15:00:00 TS 19.1498 -49.1504 main 1574 1574 _____________P -1 19.1498 -49.1504 TS 65 15 317
1878248N13322 1878 18 NA NA NOT_NAMED 1878-09-06 18:00:00 TS 19.7000 -49.7000 main 1575 1570 _____________O -1 19.7000 -49.7000 HU 70 15 317
1878248N13322 1878 18 NA NA NOT_NAMED 1878-09-06 21:00:00 TS 20.2498 -50.2504 main 1562 1562 _____________P -1 20.2498 -50.2504 HU 72 15 317
1878248N13322 1878 18 NA NA NOT_NAMED 1878-09-07 00:00:00 TS 20.8000 -50.8000 main 1570 1529 _____________O -1 20.8000 -50.8000 HU 75 15 317
1878248N13322 1878 18 NA NA NOT_NAMED 1878-09-07 03:00:00 TS 21.3498 -51.3504 main 1519 1481 _____________P -1 21.3498 -51.3504 HU 75 15 317
1878248N13322 1878 18 NA NA NOT_NAMED 1878-09-07 06:00:00 TS 21.9000 -51.9000 main 1481 1445 _____________O -1 21.9000 -51.9000 HU 75 15 317
1878248N13322 1878 18 NA NA NOT_NAMED 1878-09-07 09:00:00 TS 22.4424 -52.4579 main 1435 1406 _____________P -1 22.4424 -52.4579 HU 75 15 317
1878248N13322 1878 18 NA NA NOT_NAMED 1878-09-07 12:00:00 TS 23.0000 -53.0000 main 1406 1378 _____________O -1 23.0000 -53.0000 HU 75 15 320
1878248N13322 1878 18 NA NA NOT_NAMED 1878-09-07 15:00:00 TS 23.5998 -53.5079 main 1383 1363 _____________P -1 23.5998 -53.5079 HU 77 15 323
1878248N13322 1878 18 NA NA NOT_NAMED 1878-09-07 18:00:00 TS 24.2000 -54.0000 main 1364 1345 _____________O -1 24.2000 -54.0000 HU 80 15 322
1878248N13322 1878 18 NA NA NOT_NAMED 1878-09-07 21:00:00 TS 24.7573 -54.5005 main 1351 1333 _____________P -1 24.7573 -54.5005 HU 80 14 320
1878248N13322 1878 18 NA NA NOT_NAMED 1878-09-08 00:00:00 TS 25.3000 -55.0000 main 1337 1328 _____________O -1 25.3000 -55.0000 HU 80 14 320
1878248N13322 1878 18 NA NA NOT_NAMED 1878-09-08 03:00:00 TS 25.8498 -55.5005 main 1328 1323 _____________P -1 25.8498 -55.5005 HU 80 14 321
1878248N13322 1878 18 NA NA NOT_NAMED 1878-09-08 06:00:00 TS 26.4000 -56.0000 main 1330 1330 _____________O -1 26.4000 -56.0000 HU 80 14 320
1878248N13322 1878 18 NA NA NOT_NAMED 1878-09-08 09:00:00 TS 26.9502 -56.5448 main 1338 1331 _____________P -1 26.9502 -56.5448 HU 80 14 321
1878248N13322 1878 18 NA NA NOT_NAMED 1878-09-08 12:00:00 TS 27.5000 -57.0000 main 1344 1344 _____________O -1 27.5000 -57.0000 HU 80 13 330
1878248N13322 1878 18 NA NA NOT_NAMED 1878-09-08 15:00:00 TS 28.0497 -57.2532 main 1366 1366 _____________P -1 28.0497 -57.2532 HU 80 12 342
1878248N13322 1878 18 NA NA NOT_NAMED 1878-09-08 18:00:00 TS 28.6000 -57.4000 main 1412 1412 _____________O -1 28.6000 -57.4000 HU 80 11 346
1878248N13322 1878 18 NA NA NOT_NAMED 1878-09-08 21:00:00 TS 29.1500 -57.5725 main 1445 1445 _____________P -1 29.1500 -57.5725 HU 80 11 347
1878248N13322 1878 18 NA NA NOT_NAMED 1878-09-09 00:00:00 TS 29.7000 -57.7000 main 1494 1494 _____________O -1 29.7000 -57.7000 HU 80 11 351
1878248N13322 1878 18 NA NA NOT_NAMED 1878-09-09 03:00:00 TS 30.2575 -57.7727 main 1545 1545 _____________P -1 30.2575 -57.7727 HU 80 11 355
1878248N13322 1878 18 NA NA NOT_NAMED 1878-09-09 06:00:00 TS 30.8000 -57.8000 main 1560 1509 _____________O -1 30.8000 -57.8000 HU 80 11 357
1878248N13322 1878 18 NA NA NOT_NAMED 1878-09-09 09:00:00 TS 31.3225 -57.8224 main 1509 1458 _____________P -1 31.3225 -57.8224 HU 80 10 1
1878248N13322 1878 18 NA NA NOT_NAMED 1878-09-09 12:00:00 TS 31.8000 -57.8000 main 1458 1421 _____________O -1 31.8000 -57.8000 HU 80 9 5
1878248N13322 1878 18 NA NA NOT_NAMED 1878-09-09 15:00:00 TS 32.2075 -57.7299 main 1421 1386 _____________P -1 32.2075 -57.7299 HU 80 8 12
1878248N13322 1878 18 NA NA NOT_NAMED 1878-09-09 18:00:00 TS 32.6000 -57.6000 main 1386 1355 _____________O -1 32.6000 -57.6000 HU 80 9 18
1878248N13322 1878 18 NA NA NOT_NAMED 1878-09-09 21:00:00 TS 33.0500 -57.4151 main 1345 1315 _____________P -1 33.0500 -57.4151 HU 80 10 20
1878248N13322 1878 18 NA NA NOT_NAMED 1878-09-10 00:00:00 TS 33.5000 -57.2000 main 1315 1286 _____________O -1 33.5000 -57.2000 HU 80 9 23
1878248N13322 1878 18 NA NA NOT_NAMED 1878-09-10 03:00:00 TS 33.9000 -56.9923 main 1286 1258 _____________P -1 33.9000 -56.9923 HU 80 9 23
1878248N13322 1878 18 NA NA NOT_NAMED 1878-09-10 06:00:00 TS 34.3000 -56.8000 main 1258 1215 _____________O -1 34.3000 -56.8000 HU 80 10 18
1878248N13322 1878 18 NA NA NOT_NAMED 1878-09-10 09:00:00 TS 34.8024 -56.6426 main 1218 1178 _____________P -1 34.8024 -56.6426 HU 80 9 15
1878248N13322 1878 18 NA NA NOT_NAMED 1878-09-10 12:00:00 TS 35.2000 -56.5000 main 1178 1167 _____________O -1 35.2000 -56.5000 HU 80 6 26
1878248N13322 1878 18 NA NA NOT_NAMED 1878-09-10 15:00:00 TS 35.3100 -56.3497 main 1173 1173 _____________P -1 35.3100 -56.3497 HU 80 3 68
1878248N13322 1878 18 NA NA NOT_NAMED 1878-09-10 18:00:00 TS 35.3000 -56.2000 main 1176 1176 _____________O -1 35.3000 -56.2000 HU 80 2 81
1878248N13322 1878 18 NA NA NOT_NAMED 1878-09-10 21:00:00 TS 35.3500 -56.0500 main 1182 1172 _____________P -1 35.3500 -56.0500 HU 80 3 68
1878248N13322 1878 18 NA NA NOT_NAMED 1878-09-11 00:00:00 TS 35.4000 -55.9000 main 1175 1167 _____________O -1 35.4000 -55.9000 HU 80 3 67
1878248N13322 1878 18 NA NA NOT_NAMED 1878-09-11 03:00:00 TS 35.4575 -55.7425 main 1171 1171 _____________P -1 35.4575 -55.7425 HU 80 3 68
1878248N13322 1878 18 NA NA NOT_NAMED 1878-09-11 06:00:00 TS 35.5000 -55.6000 main 1174 1174 _____________O -1 35.5000 -55.6000 HU 80 2 77
1878248N13322 1878 18 NA NA NOT_NAMED 1878-09-11 09:00:00 TS 35.4999 -55.5149 main 1177 1177 _____________P -1 35.4999 -55.5149 HU 80 2 90
1878248N13322 1878 18 NA NA NOT_NAMED 1878-09-11 12:00:00 TS 35.5000 -55.4000 main 1181 1181 _____________O -1 35.5000 -55.4000 HU 80 3 81
1878248N13322 1878 18 NA NA NOT_NAMED 1878-09-11 15:00:00 TS 35.5426 -55.1651 main 1188 1181 _____________P -1 35.5426 -55.1651 HU 80 4 76
1878248N13322 1878 18 NA NA NOT_NAMED 1878-09-11 18:00:00 TS 35.6000 -54.9000 main 1188 1188 _____________O -1 35.6000 -54.9000 HU 80 4 74
1878248N13322 1878 18 NA NA NOT_NAMED 1878-09-11 21:00:00 TS 35.6499 -54.6999 main 1196 1186 _____________P -1 35.6499 -54.6999 HU 80 3 73
1878248N13322 1878 18 NA NA NOT_NAMED 1878-09-12 00:00:00 TS 35.7000 -54.5000 main 1193 1191 _____________O -1 35.7000 -54.5000 HU 80 4 74
1878248N13322 1878 18 NA NA NOT_NAMED 1878-09-12 03:00:00 TS 35.7575 -54.2501 main 1191 1191 _____________P -1 35.7575 -54.2501 HU 80 4 76
1878248N13322 1878 18 NA NA NOT_NAMED 1878-09-12 06:00:00 TS 35.8000 -54.0000 main 1201 1201 _____________O -1 35.8000 -54.0000 HU 80 4 83
1878248N13322 1878 18 NA NA NOT_NAMED 1878-09-12 09:00:00 TS 35.7999 -53.7924 main 1201 1201 _____________P -1 35.7999 -53.7924 HU 80 3 90
1878248N13322 1878 18 NA NA NOT_NAMED 1878-09-12 12:00:00 TS 35.8000 -53.6000 main 1201 1201 _____________O -1 35.8000 -53.6000 HU 80 3 82
1878248N13322 1878 18 NA NA NOT_NAMED 1878-09-12 15:00:00 TS 35.8425 -53.4000 main 1201 1190 _____________P -1 35.8425 -53.4000 HU 80 3 73
1878248N13322 1878 18 NA NA NOT_NAMED 1878-09-12 18:00:00 TS 35.9000 -53.2000 main 1190 1190 _____________O -1 35.9000 -53.2000 HU 80 3 72
1878248N13322 1878 18 NA NA NOT_NAMED 1878-09-12 21:00:00 TS 35.9500 -53.0000 main 1190 1179 _____________P -1 35.9500 -53.0000 HU 80 3 73
1878248N13322 1878 18 NA NA NOT_NAMED 1878-09-13 00:00:00 TS 36.0000 -52.8000 main 1179 1179 _____________O -1 36.0000 -52.8000 HU 80 3 73
1878248N13322 1878 18 NA NA NOT_NAMED 1878-09-13 03:00:00 TS 36.0500 -52.6000 main 1180 1169 _____________P -1 36.0500 -52.6000 HU 80 3 73
1878248N13322 1878 18 NA NA NOT_NAMED 1878-09-13 06:00:00 TS 36.1000 -52.4000 main 1169 1169 _____________O -1 36.1000 -52.4000 HU 80 3 72
1878248N13322 1878 18 NA NA NOT_NAMED 1878-09-13 09:00:00 TS 36.1499 -52.2149 main 1171 1159 _____________P -1 36.1499 -52.2149 HU 80 3 73
1878248N13322 1878 18 NA NA NOT_NAMED 1878-09-13 12:00:00 TS 36.2000 -52.0000 main 1161 1152 _____________O -1 36.2000 -52.0000 HU 80 4 75
1878248N13322 1878 18 NA NA NOT_NAMED 1878-09-13 15:00:00 TS 36.2575 -51.7151 main 1152 1152 _____________P -1 36.2575 -51.7151 HU 77 5 78
1878248N13322 1878 18 NA NA NOT_NAMED 1878-09-13 18:00:00 TS 36.3000 -51.4000 main 1155 1155 _____________O -1 36.3000 -51.4000 HU 75 5 85
1878248N13322 1878 18 NA NA NOT_NAMED 1878-09-13 21:00:00 TS 36.2999 -51.0998 main 1158 1158 _____________P -1 36.2999 -51.0998 HU 75 5 90
1878248N13322 1878 18 NA NA NOT_NAMED 1878-09-14 00:00:00 TS 36.3000 -50.8000 main 1162 1162 _____________O -1 36.3000 -50.8000 HU 75 5 84
1878248N13322 1878 18 NA NA NOT_NAMED 1878-09-14 03:00:00 TS 36.3499 -50.5001 main 1167 1156 _____________P -1 36.3499 -50.5001 HU 75 5 78
1878248N13322 1878 18 NA NA NOT_NAMED 1878-09-14 06:00:00 TS 36.4000 -50.2000 main 1161 1161 _____________O -1 36.4000 -50.2000 HU 75 5 82
1878248N13322 1878 18 NA NA NOT_NAMED 1878-09-14 09:00:00 TS 36.4149 -49.9000 main 1166 1166 _____________P -1 36.4149 -49.9000 HU 75 5 90
1878248N13322 1878 18 NA NA NOT_NAMED 1878-09-14 12:00:00 TS 36.4000 -49.6000 main 1173 1173 _____________O -1 36.4000 -49.6000 HU 75 5 97
1878248N13322 1878 18 NA NA NOT_NAMED 1878-09-14 15:00:00 TS 36.3575 -49.2924 main 1179 1179 _____________P -1 36.3575 -49.2924 HU 75 5 102
1878248N13322 1878 18 NA NA NOT_NAMED 1878-09-14 18:00:00 TS 36.3000 -49.0000 main 1197 1197 _____________O -1 36.3000 -49.0000 HU 75 5 104
1878248N13322 1878 18 NA NA NOT_NAMED 1878-09-14 21:00:00 TS 36.2499 -48.7425 main 1215 1215 _____________P -1 36.2499 -48.7425 HU 72 4 104
1878248N13322 1878 18 NA NA NOT_NAMED 1878-09-15 00:00:00 TS 36.2000 -48.5000 main 1220 1220 _____________O -1 36.2000 -48.5000 HU 70 4 104
1878248N13322 1878 18 NA NA NOT_NAMED 1878-09-15 03:00:00 TS 36.1499 -48.2500 main 1236 1236 _____________P -1 36.1499 -48.2500 HU 70 4 104
1878248N13322 1878 18 NA NA NOT_NAMED 1878-09-15 06:00:00 TS 36.1000 -48.0000 main 1244 1244 _____________O -1 36.1000 -48.0000 HU 70 4 103
1878248N13322 1878 18 NA NA NOT_NAMED 1878-09-15 09:00:00 TS 36.0647 -47.7803 main 1250 1250 _____________P -1 36.0647 -47.7803 HU 70 4 104
1878248N13322 1878 18 NA NA NOT_NAMED 1878-09-15 12:00:00 TS 36.0000 -47.5000 main 1270 1270 _____________O -1 36.0000 -47.5000 HU 70 6 111
1878248N13322 1878 18 NA NA NOT_NAMED 1878-09-15 15:00:00 TS 35.8573 -47.1023 main 1293 1293 _____________P -1 35.8573 -47.1023 HU 70 8 112
1878248N13322 1878 18 NA NA NOT_NAMED 1878-09-15 18:00:00 TS 35.7000 -46.6000 main 1330 1330 _____________O -1 35.7000 -46.6000 HU 70 9 107
1878248N13322 1878 18 NA NA NOT_NAMED 1878-09-15 21:00:00 TS 35.5851 -46.0150 main 1362 1362 _____________P -1 35.5851 -46.0150 HU 67 10 102
1878248N13322 1878 18 NA NA NOT_NAMED 1878-09-16 00:00:00 TS 35.5000 -45.4000 main 1394 1394 _____________O -1 35.5000 -45.4000 HU 65 10 98
1878248N13322 1878 18 NA NA NOT_NAMED 1878-09-16 03:00:00 TS 35.4495 -44.8504 main 1424 1424 _____________P -1 35.4495 -44.8504 HU 65 9 96
1878248N13322 1878 18 NA NA NOT_NAMED 1878-09-16 06:00:00 TS 35.4000 -44.3000 main 1449 1449 _____________O -1 35.4000 -44.3000 HU 65 9 99
1878248N13322 1878 18 NA NA NOT_NAMED 1878-09-16 09:00:00 TS 35.2999 -43.6998 main 1485 1485 _____________P -1 35.2999 -43.6998 HU 65 10 102
1878248N13322 1878 18 NA NA NOT_NAMED 1878-09-16 12:00:00 TS 35.2000 -43.1000 main 1521 1521 _____________O -1 35.2000 -43.1000 HU 65 9 99
1878248N13322 1878 18 NA NA NOT_NAMED 1878-09-16 15:00:00 TS 35.1495 -42.5504 main 1554 1554 _____________P -1 35.1495 -42.5504 HU 62 9 96
1878248N13322 1878 18 NA NA NOT_NAMED 1878-09-16 18:00:00 TS 35.1000 -42.0000 main 1583 1583 _____________O -1 35.1000 -42.0000 TS 60 10 99
1878248N13322 1878 18 NA NA NOT_NAMED 1878-09-16 21:00:00 TS 34.9999 -41.3998 main 1622 1622 _____________P -1 34.9999 -41.3998 TS 57 10 101
1878248N13322 1878 18 NA NA NOT_NAMED 1878-09-17 00:00:00 TS 34.9000 -40.8000 main 1662 1662 _____________O -1 34.9000 -40.8000 TS 55 10 99
1878248N13322 1878 18 NA NA NOT_NAMED 1878-09-17 03:00:00 TS 34.8495 -40.2504 main 1698 1698 _____________P -1 34.8495 -40.2504 TS 52 9 96
1878248N13322 1878 18 NA NA NOT_NAMED 1878-09-17 06:00:00 TS 34.8000 -39.7000 main 1730 1730 _____________O -1 34.8000 -39.7000 TS 50 10 99
1878248N13322 1878 18 NA NA NOT_NAMED 1878-09-17 09:00:00 TS 34.6999 -39.0998 main 1771 1771 _____________P -1 34.6999 -39.0998 TS 50 10 101
1878248N13322 1878 18 NA NA NOT_NAMED 1878-09-17 12:00:00 TS 34.6000 -38.5000 main 1814 1814 _____________O -1 34.6000 -38.5000 TS 50 10 99
1878248N13322 1878 18 NA NA NOT_NAMED 1878-09-17 15:00:00 TS 34.5495 -37.9504 main 1851 1851 _____________P -1 34.5495 -37.9504 TS 47 9 96
1878248N13322 1878 18 NA NA NOT_NAMED 1878-09-17 18:00:00 TS 34.5000 -37.4000 main 1886 1886 _____________O -1 34.5000 -37.4000 TS 45 10 99
1878248N13322 1878 18 NA NA NOT_NAMED 1878-09-17 21:00:00 TS 34.3999 -36.7998 main 1930 1930 _____________P -1 34.3999 -36.7998 TS 45 10 101
1878248N13322 1878 18 NA NA NOT_NAMED 1878-09-18 00:00:00 TS 34.3000 -36.2000 main 1954 1909 _____________O -1 34.3000 -36.2000 TS 45 10 99
1878248N13322 1878 18 NA NA NOT_NAMED 1878-09-18 03:00:00 TS 34.2495 -35.6504 main 1907 1853 _____________P -1 34.2495 -35.6504 TS 45 9 96
1878248N13322 1878 18 NA NA NOT_NAMED 1878-09-18 06:00:00 TS 34.2000 -35.1000 main 1853 1797 _____________O -1 34.2000 -35.1000 TS 45 10 99
1878248N13322 1878 18 NA NA NOT_NAMED 1878-09-18 09:00:00 TS 34.0999 -34.4998 main 1797 1741 _____________P -1 34.0999 -34.4998 TS 42 10 101
1878248N13322 1878 18 NA NA NOT_NAMED 1878-09-18 12:00:00 TS 34.0000 -33.9000 main 1741 1694 _____________O -1 34.0000 -33.9000 TS 40 10 100
1878248N13322 1878 18 NA NA NOT_NAMED 1878-09-18 15:00:00 TS 33.9378 -33.3376 main 1685 1641 _____________P -1 33.9378 -33.3376 TS 37 9 96
1878248N13322 1878 18 NA NA NOT_NAMED 1878-09-18 18:00:00 TS 33.9000 -32.8000 main 1641 _____________O -1 33.9000 -32.8000 TS 35 9 95

About IBTrACS Database

This database is a web-friendly format of International Best Track Archive for Climate Stewardship (IBTrACS), a global best track data archive curated by NOAA dating back to 1842.

Updated: 2021-11-26